createdAt,value
2022-09-24T00:00:40.566Z,0.00
2022-09-24T00:01:40.636Z,0.00
2022-09-24T00:02:40.468Z,0.00
2022-09-24T00:03:40.329Z,0.00
2022-09-24T00:04:40.251Z,0.00
2022-09-24T00:05:40.179Z,0.00
2022-09-24T00:06:40.091Z,0.00
2022-09-24T00:07:40.015Z,0.00
2022-09-24T00:08:39.935Z,0.00
2022-09-24T00:09:39.875Z,0.00
2022-09-24T00:10:39.801Z,0.00
2022-09-24T00:11:39.700Z,0.00
2022-09-24T00:12:39.618Z,0.00
2022-09-24T00:13:39.542Z,0.00
2022-09-24T00:14:39.462Z,0.00
2022-09-24T00:15:39.387Z,0.00
2022-09-24T00:16:39.389Z,0.00
2022-09-24T00:17:39.224Z,0.00
2022-09-24T00:18:39.144Z,0.00
2022-09-24T00:19:39.069Z,0.00
2022-09-24T00:20:39.188Z,0.00
2022-09-24T00:21:38.907Z,0.00
2022-09-24T00:22:38.830Z,0.00
2022-09-24T00:23:38.752Z,0.00
2022-09-24T00:24:38.671Z,0.00
2022-09-24T00:25:38.611Z,0.00
2022-09-24T00:26:38.514Z,0.00
2022-09-24T00:27:38.436Z,0.00
2022-09-24T00:28:38.356Z,0.00
2022-09-24T00:29:38.278Z,0.00
2022-09-24T00:30:38.201Z,0.00
2022-09-24T00:31:38.262Z,0.00
2022-09-24T00:32:38.040Z,0.00
2022-09-24T00:33:37.963Z,0.00
2022-09-24T00:34:37.886Z,0.00
2022-09-24T00:35:38.056Z,0.00
2022-09-24T00:36:37.726Z,0.00
2022-09-24T00:37:37.646Z,0.00
2022-09-24T00:38:37.568Z,0.00
2022-09-24T00:39:37.490Z,0.00
2022-09-24T00:40:37.467Z,0.00
2022-09-24T00:41:37.352Z,0.00
2022-09-24T00:42:37.250Z,0.00
2022-09-24T00:43:37.173Z,0.00
2022-09-24T00:44:37.093Z,0.00
2022-09-24T00:45:37.015Z,0.00
2022-09-24T00:46:36.988Z,0.00
2022-09-24T00:47:36.859Z,0.00
2022-09-24T00:48:36.779Z,0.00
2022-09-24T00:49:36.698Z,0.00
2022-09-24T00:50:36.619Z,0.00
2022-09-24T00:51:36.539Z,0.00
2022-09-24T00:52:36.462Z,0.00
2022-09-24T00:53:36.381Z,0.00
2022-09-24T00:54:36.302Z,0.00
2022-09-24T00:55:38.844Z,0.00
2022-09-24T00:56:36.144Z,0.00
2022-09-24T00:57:36.084Z,0.00
2022-09-24T00:58:36.084Z,0.00
2022-09-24T00:59:35.913Z,0.00
2022-09-24T01:00:35.866Z,0.00
2022-09-24T01:01:35.832Z,0.00
2022-09-24T01:02:35.767Z,0.00
2022-09-24T01:03:35.592Z,0.00
2022-09-24T01:04:35.511Z,0.00
2022-09-24T01:05:35.432Z,0.00
2022-09-24T01:06:35.353Z,0.00
2022-09-24T01:07:35.276Z,0.00
2022-09-24T01:08:35.200Z,0.00
2022-09-24T01:09:35.115Z,0.00
2022-09-24T01:10:35.035Z,0.00
2022-09-24T01:11:34.958Z,0.00
2022-09-24T01:12:34.886Z,0.00
2022-09-24T01:13:34.815Z,0.00
2022-09-24T01:14:34.719Z,0.00
2022-09-24T01:15:34.642Z,0.00
2022-09-24T01:16:34.658Z,0.00
2022-09-24T01:17:34.482Z,0.00
2022-09-24T01:18:34.402Z,0.00
2022-09-24T01:19:34.331Z,0.00
2022-09-24T01:20:34.243Z,0.00
2022-09-24T01:21:34.165Z,0.00
2022-09-24T01:22:34.085Z,0.00
2022-09-24T01:23:34.006Z,0.00
2022-09-24T01:24:33.926Z,0.00
2022-09-24T01:25:33.846Z,0.00
2022-09-24T01:26:33.769Z,0.00
2022-09-24T01:27:33.688Z,0.00
2022-09-24T01:28:33.660Z,0.00
2022-09-24T01:29:33.549Z,0.00
2022-09-24T01:30:33.453Z,0.00
2022-09-24T01:31:33.434Z,0.00
2022-09-24T01:32:33.349Z,0.00
2022-09-24T01:33:33.557Z,0.00
2022-09-24T01:34:33.134Z,0.00
2022-09-24T01:35:33.061Z,0.00
2022-09-24T01:36:32.979Z,0.00
2022-09-24T01:37:32.896Z,0.00
2022-09-24T01:38:32.820Z,0.00
2022-09-24T01:39:32.740Z,0.00
2022-09-24T01:40:32.871Z,0.00
2022-09-24T01:41:32.582Z,0.00
2022-09-24T01:42:32.500Z,0.00
2022-09-24T01:43:32.432Z,0.00
2022-09-24T01:44:32.345Z,0.00
2022-09-24T01:45:32.284Z,0.00
2022-09-24T01:46:32.204Z,0.00
2022-09-24T01:47:34.552Z,0.00
2022-09-24T01:48:32.024Z,0.00
2022-09-24T01:49:31.946Z,0.00
2022-09-24T01:50:31.866Z,0.00
2022-09-24T01:52:31.712Z,0.00
2022-09-24T01:53:31.631Z,0.00
2022-09-24T01:54:31.549Z,0.00
2022-09-24T01:55:31.469Z,0.00
2022-09-24T01:56:31.392Z,0.00
2022-09-24T01:57:31.309Z,0.00
2022-09-24T01:58:31.232Z,0.00
2022-09-24T01:59:31.153Z,0.00
2022-09-24T02:00:31.137Z,0.00
2022-09-24T02:01:31.011Z,0.00
2022-09-24T02:02:31.067Z,0.00
2022-09-24T02:03:30.842Z,0.00
2022-09-24T02:05:13.237Z,0.00
2022-09-24T02:06:13.154Z,0.00
2022-09-24T02:07:13.079Z,0.00
2022-09-24T02:08:12.995Z,0.00
2022-09-24T02:09:12.915Z,0.00
2022-09-24T02:10:12.836Z,0.00
2022-09-24T02:11:12.757Z,0.00
2022-09-24T02:12:12.675Z,0.00
2022-09-24T02:13:12.595Z,0.00
2022-09-24T02:14:12.514Z,0.00
2022-09-24T02:15:12.474Z,0.00
2022-09-24T02:16:12.411Z,0.00
2022-09-24T02:17:12.292Z,0.00
2022-09-24T02:18:12.230Z,0.00
2022-09-24T02:19:12.133Z,0.00
2022-09-24T02:20:12.035Z,0.00
2022-09-24T02:21:11.957Z,0.00
2022-09-24T02:22:11.874Z,0.00
2022-09-24T02:23:11.830Z,0.00
2022-09-24T02:24:11.713Z,0.00
2022-09-24T02:25:11.632Z,0.00
2022-09-24T02:26:11.551Z,0.00
2022-09-24T02:27:11.529Z,0.00
2022-09-24T02:28:11.389Z,0.00
2022-09-24T02:29:11.311Z,0.00
2022-09-24T02:30:11.231Z,0.00
2022-09-24T02:31:11.374Z,0.00
2022-09-24T02:32:11.075Z,0.00
2022-09-24T02:33:11.006Z,0.00
2022-09-24T02:34:10.957Z,0.00
2022-09-24T02:35:10.830Z,0.00
2022-09-24T02:36:10.747Z,0.00
2022-09-24T02:37:10.666Z,0.00
2022-09-24T02:38:10.584Z,0.00
2022-09-24T02:39:10.504Z,0.00
2022-09-24T02:40:10.503Z,0.00
2022-09-24T02:41:10.343Z,0.00
2022-09-24T02:42:10.262Z,0.00
2022-09-24T02:43:10.182Z,0.00
2022-09-24T02:44:10.221Z,0.00
2022-09-24T02:45:10.021Z,0.00
2022-09-24T02:46:09.995Z,0.00
2022-09-24T02:47:09.861Z,0.00
2022-09-24T02:48:09.777Z,0.00
2022-09-24T02:49:09.719Z,0.00
2022-09-24T02:50:09.616Z,0.00
2022-09-24T02:51:09.537Z,0.00
2022-09-24T02:52:09.454Z,0.00
2022-09-24T02:53:09.374Z,0.00
2022-09-24T02:54:09.367Z,0.00
2022-09-24T02:55:09.215Z,0.00
2022-09-24T02:56:09.129Z,0.00
2022-09-24T02:57:09.052Z,0.00
2022-09-24T02:58:08.969Z,0.00
2022-09-24T02:59:08.893Z,0.00
2022-09-24T03:00:08.805Z,0.00
2022-09-24T03:01:08.730Z,0.00
2022-09-24T03:02:08.744Z,0.00
2022-09-24T03:03:08.635Z,0.00
2022-09-24T03:04:08.629Z,0.00
2022-09-24T03:05:08.506Z,0.00
2022-09-24T03:06:08.322Z,0.00
2022-09-24T03:07:08.243Z,0.00
2022-09-24T03:08:08.163Z,0.00
2022-09-24T03:09:08.084Z,0.00
2022-09-24T03:10:07.996Z,0.00
2022-09-24T03:11:07.917Z,0.00
2022-09-24T03:12:07.836Z,0.00
2022-09-24T03:13:07.756Z,0.00
2022-09-24T03:14:07.794Z,0.00
2022-09-24T03:15:07.595Z,0.00
2022-09-24T03:16:07.542Z,0.00
2022-09-24T03:17:07.431Z,0.00
2022-09-24T03:18:07.357Z,0.00
2022-09-24T03:19:07.269Z,0.00
2022-09-24T03:20:07.185Z,0.00
2022-09-24T03:21:07.126Z,0.00
2022-09-24T03:22:07.026Z,0.00
2022-09-24T03:23:06.944Z,0.00
2022-09-24T03:24:06.932Z,0.00
2022-09-24T03:25:06.784Z,0.00
2022-09-24T03:26:06.702Z,0.00
2022-09-24T03:27:06.620Z,0.00
2022-09-24T03:28:06.537Z,0.00
2022-09-24T03:29:06.461Z,0.00
2022-09-24T03:30:06.378Z,0.00
2022-09-24T03:31:09.109Z,0.00
2022-09-24T03:32:06.212Z,0.00
2022-09-24T03:33:06.131Z,0.00
2022-09-24T03:34:06.051Z,0.00
2022-09-24T03:35:05.967Z,0.00
2022-09-24T03:36:05.888Z,0.00
2022-09-24T03:37:07.278Z,0.00
2022-09-24T03:39:38.231Z,0.00
2022-09-24T03:40:38.244Z,0.00
2022-09-24T03:41:38.070Z,0.00
2022-09-24T03:42:37.986Z,0.00
2022-09-24T03:43:37.903Z,0.00
2022-09-24T03:44:37.822Z,0.00
2022-09-24T03:45:37.744Z,0.00
2022-09-24T03:46:37.706Z,0.00
2022-09-24T03:47:37.578Z,0.00
2022-09-24T03:48:37.498Z,0.00
2022-09-24T03:49:37.417Z,0.00
2022-09-24T03:50:37.333Z,0.00
2022-09-24T03:51:37.254Z,0.00
2022-09-24T03:52:37.239Z,0.00
2022-09-24T03:53:37.090Z,0.00
2022-09-24T03:54:37.006Z,0.00
2022-09-24T03:55:36.928Z,0.00
2022-09-24T03:56:36.844Z,0.00
2022-09-24T03:57:36.764Z,0.00
2022-09-24T03:58:36.714Z,0.00
2022-09-24T03:59:36.642Z,0.00
2022-09-24T04:00:40.944Z,0.00
2022-09-24T04:01:36.858Z,0.00
2022-09-24T04:02:36.862Z,0.00
2022-09-24T04:03:36.333Z,0.00
2022-09-24T04:04:36.230Z,0.00
2022-09-24T04:05:36.148Z,0.00
2022-09-24T04:06:36.671Z,0.00
2022-09-24T04:07:35.952Z,0.00
2022-09-24T04:08:35.911Z,0.00
2022-09-24T04:09:35.786Z,0.00
2022-09-24T04:10:35.704Z,0.00
2022-09-24T04:11:35.620Z,0.00
2022-09-24T04:12:35.540Z,0.00
2022-09-24T04:13:35.494Z,0.00
2022-09-24T04:14:35.417Z,0.00
2022-09-24T04:15:35.843Z,0.00
2022-09-24T04:16:35.297Z,0.00
2022-09-24T04:20:35.093Z,0.00
2022-09-24T04:21:35.155Z,0.00
2022-09-24T04:23:34.651Z,0.00
2022-09-24T04:24:34.902Z,0.00
2022-09-24T04:26:34.442Z,0.00
2022-09-24T04:27:34.358Z,0.00
2022-09-24T04:28:34.279Z,0.00
2022-09-24T04:29:34.364Z,0.00
2022-09-24T04:30:34.525Z,0.00
2022-09-24T04:31:34.160Z,0.00
2022-09-24T04:32:33.955Z,0.00
2022-09-24T04:33:33.869Z,0.00
2022-09-24T04:35:33.717Z,0.00
2022-09-24T04:39:33.383Z,0.00
2022-09-24T04:42:33.168Z,0.00
2022-09-24T04:43:33.062Z,0.00
2022-09-24T04:44:32.981Z,0.00
2022-09-24T04:45:32.896Z,0.00
2022-09-24T04:46:33.595Z,0.00
2022-09-24T04:47:32.738Z,0.00
2022-09-24T04:48:32.857Z,0.00
2022-09-24T04:49:32.576Z,0.00
2022-09-24T04:50:32.493Z,4.00
2022-09-24T04:52:32.292Z,0.00
2022-09-24T04:54:32.428Z,4.00
2022-09-24T04:55:32.380Z,4.00
2022-09-24T04:56:32.003Z,8.00
2022-09-24T04:57:31.940Z,8.00
2022-09-24T04:58:31.845Z,8.00
2022-09-24T04:59:31.758Z,12.00
2022-09-24T05:00:31.883Z,16.00
2022-09-24T05:01:31.871Z,16.00
2022-09-24T05:02:31.697Z,20.00
2022-09-24T05:03:32.141Z,24.00
2022-09-24T05:04:31.355Z,28.00
2022-09-24T05:05:31.270Z,28.00
2022-09-24T05:06:31.393Z,36.00
2022-09-24T05:07:31.108Z,40.00
2022-09-24T05:08:31.027Z,48.00
2022-09-24T05:09:30.946Z,52.00
2022-09-24T05:10:30.862Z,56.00
2022-09-24T05:11:31.188Z,64.00
2022-09-24T05:12:30.701Z,72.00
2022-09-24T05:13:30.615Z,80.00
2022-09-24T05:15:30.462Z,96.00
2022-09-24T05:17:30.302Z,112.00
2022-09-24T05:18:30.418Z,120.00
2022-09-24T05:19:31.141Z,128.00
2022-09-24T05:20:30.048Z,140.00
2022-09-24T05:21:29.970Z,148.00
2022-09-24T05:22:29.886Z,156.00
2022-09-24T05:24:29.724Z,172.00
2022-09-24T05:25:29.846Z,184.00
2022-09-24T05:27:29.682Z,204.00
2022-09-24T05:29:29.314Z,236.00
2022-09-24T05:31:29.457Z,280.00
2022-09-24T05:33:29.192Z,332.00
2022-09-24T05:34:29.110Z,356.00
2022-09-24T05:35:29.132Z,384.00
2022-09-24T05:37:28.865Z,436.00
2022-09-24T05:40:28.789Z,516.00
2022-09-24T05:41:29.053Z,540.00
2022-09-24T05:42:28.464Z,572.00
2022-09-24T05:43:28.177Z,608.00
2022-09-24T05:44:28.101Z,640.00
2022-09-24T05:46:27.955Z,696.00
2022-09-24T05:47:27.852Z,708.00
2022-09-24T05:48:29.088Z,716.00
2022-09-24T05:49:27.694Z,720.00
2022-09-24T05:50:27.823Z,732.00
2022-09-24T05:51:27.493Z,748.00
2022-09-24T05:52:27.644Z,776.00
2022-09-24T05:53:27.569Z,804.00
2022-09-24T05:55:32.059Z,844.00
2022-09-24T05:56:27.529Z,876.00
2022-09-24T05:57:27.243Z,916.00
2022-09-24T05:58:26.965Z,952.00
2022-09-24T06:00:26.801Z,1008.00
2022-09-24T06:02:26.638Z,1076.00
2022-09-24T06:04:26.786Z,1096.00
2022-09-24T06:05:26.913Z,1092.00
2022-09-24T06:06:26.317Z,1116.00
2022-09-24T06:07:26.240Z,1140.00
2022-09-24T06:08:26.157Z,1176.00
2022-09-24T06:09:26.081Z,1212.00
2022-09-24T06:11:26.122Z,1280.00
2022-09-24T06:12:25.842Z,1320.00
2022-09-24T06:13:25.756Z,1344.00
2022-09-24T06:14:25.679Z,1344.00
2022-09-24T06:17:25.640Z,1396.00
2022-09-24T06:18:25.362Z,1400.00
2022-09-24T06:19:25.279Z,1420.00
2022-09-24T06:21:25.253Z,1436.00
2022-09-24T06:22:28.410Z,1436.00
2022-09-24T06:23:24.925Z,1460.00
2022-09-24T06:24:25.080Z,1472.00
2022-09-24T06:25:25.012Z,1480.00
2022-09-24T06:26:24.721Z,1520.00
2022-09-24T06:27:24.608Z,1592.00
2022-09-24T06:29:24.485Z,1556.00
2022-09-24T06:30:24.407Z,1576.00
2022-09-24T06:31:24.573Z,1616.00
2022-09-24T06:32:24.212Z,1592.00
2022-09-24T06:33:24.165Z,1592.00
2022-09-24T06:34:24.290Z,1628.00
2022-09-24T06:35:24.005Z,1704.00
2022-09-24T06:36:23.931Z,1780.00
2022-09-24T06:37:23.874Z,1860.00
2022-09-24T06:50:40.131Z,2112.00
2022-09-24T06:51:40.050Z,2088.00
2022-09-24T06:52:39.992Z,2068.00
2022-09-24T06:53:39.893Z,2100.00
2022-09-24T06:54:39.815Z,2112.00
2022-09-24T06:55:39.741Z,2140.00
2022-09-24T06:56:39.656Z,2100.00
2022-09-24T06:57:39.577Z,2040.00
2022-09-24T06:58:39.750Z,1948.00
2022-09-24T06:59:39.422Z,1912.00
2022-09-24T07:00:39.433Z,1892.00
2022-09-24T07:01:39.416Z,1872.00
2022-09-24T07:02:39.266Z,1876.00
2022-09-24T07:03:39.107Z,1892.00
2022-09-24T07:04:39.028Z,1908.00
2022-09-24T07:05:43.426Z,1896.00
2022-09-24T07:06:38.875Z,1904.00
2022-09-24T07:07:38.791Z,1892.00
2022-09-24T07:08:38.734Z,1884.00
2022-09-24T07:09:38.635Z,1840.00
2022-09-24T07:10:38.559Z,1880.00
2022-09-24T07:11:38.480Z,1896.00
2022-09-24T07:12:38.401Z,1932.00
2022-09-24T07:13:38.330Z,2044.00
2022-09-24T07:14:38.243Z,2104.00
2022-09-24T07:15:38.262Z,2192.00
2022-09-24T07:16:38.087Z,2224.00
2022-09-24T07:17:38.009Z,2268.00
2022-09-24T07:18:37.933Z,2324.00
2022-09-24T07:19:37.853Z,2296.00
2022-09-24T07:20:37.776Z,2144.00
2022-09-24T07:21:37.698Z,2152.00
2022-09-24T07:22:37.627Z,2260.00
2022-09-24T07:23:37.541Z,2396.00
2022-09-24T07:24:37.482Z,2648.00
2022-09-24T07:25:37.385Z,2884.00
2022-09-24T07:26:37.311Z,3032.00
2022-09-24T07:27:37.230Z,3060.00
2022-09-24T07:28:37.156Z,2960.00
2022-09-24T07:29:37.074Z,2832.00
2022-09-24T07:30:37.025Z,2708.00
2022-09-24T07:31:37.033Z,2596.00
2022-09-24T07:32:36.845Z,2564.00
2022-09-24T07:33:36.767Z,2676.00
2022-09-24T07:34:36.690Z,2824.00
2022-09-24T07:35:36.611Z,2756.00
2022-09-24T07:36:36.533Z,2616.00
2022-09-24T07:37:36.457Z,2540.00
2022-09-24T07:38:36.471Z,2428.00
2022-09-24T07:39:36.303Z,2384.00
2022-09-24T07:40:36.476Z,2336.00
2022-09-24T07:41:41.384Z,2336.00
2022-09-24T07:42:36.072Z,2296.00
2022-09-24T07:43:36.148Z,2348.00
2022-09-24T07:44:35.920Z,2508.00
2022-09-24T07:45:35.842Z,2728.00
2022-09-24T07:46:35.838Z,2980.00
2022-09-24T07:47:35.688Z,3216.00
2022-09-24T07:48:35.610Z,3520.00
2022-09-24T07:49:35.685Z,3892.00
2022-09-24T07:50:35.456Z,4016.00
2022-09-24T07:51:35.383Z,3844.00
2022-09-24T07:52:35.304Z,3736.00
2022-09-24T07:53:35.225Z,3708.00
2022-09-24T07:54:35.149Z,3752.00
2022-09-24T07:55:35.073Z,3788.00
2022-09-24T07:56:35.015Z,3828.00
2022-09-24T07:57:35.069Z,3852.00
2022-09-24T07:58:34.843Z,3888.00
2022-09-24T07:59:34.793Z,3948.00
2022-09-24T08:00:34.689Z,3996.00
2022-09-24T08:01:34.691Z,3964.00
2022-09-24T08:02:34.538Z,3872.00
2022-09-24T08:03:34.518Z,3712.00
2022-09-24T08:04:34.385Z,3508.00
2022-09-24T08:05:34.306Z,3276.00
2022-09-24T08:06:37.966Z,3100.00
2022-09-24T08:07:34.158Z,2992.00
2022-09-24T08:08:34.079Z,2972.00
2022-09-24T08:09:34.002Z,3048.00
2022-09-24T08:10:34.084Z,3168.00
2022-09-24T08:11:33.851Z,3312.00
2022-09-24T08:12:33.898Z,3460.00
2022-09-24T08:13:33.699Z,3544.00
2022-09-24T08:14:33.624Z,3628.00
2022-09-24T08:15:33.555Z,3740.00
2022-09-24T08:16:33.474Z,3832.00
2022-09-24T08:17:33.394Z,3884.00
2022-09-24T08:18:33.323Z,3884.00
2022-09-24T08:19:33.245Z,3776.00
2022-09-24T08:20:33.166Z,3624.00
2022-09-24T08:21:33.091Z,3552.00
2022-09-24T08:22:33.017Z,3512.00
2022-09-24T08:23:32.938Z,3448.00
2022-09-24T08:24:32.864Z,3296.00
2022-09-24T08:25:32.787Z,3204.00
2022-09-24T08:26:32.711Z,3276.00
2022-09-24T08:27:32.636Z,3580.00
2022-09-24T08:28:32.577Z,4044.00
2022-09-24T08:29:32.481Z,4460.00
2022-09-24T08:30:32.411Z,4688.00
2022-09-24T08:31:32.399Z,4784.00
2022-09-24T08:32:32.258Z,4828.00
2022-09-24T08:33:32.177Z,4876.00
2022-09-24T08:34:32.105Z,4928.00
2022-09-24T08:35:32.025Z,4976.00
2022-09-24T08:36:31.950Z,5076.00
2022-09-24T08:37:31.873Z,5248.00
2022-09-24T08:38:31.799Z,5468.00
2022-09-24T08:39:31.724Z,5656.00
2022-09-24T08:40:31.755Z,5768.00
2022-09-24T08:41:31.580Z,5892.00
2022-09-24T08:42:31.498Z,6016.00
2022-09-24T08:43:31.421Z,6096.00
2022-09-24T08:44:31.366Z,6140.00
2022-09-24T08:45:31.271Z,6156.00
2022-09-24T08:46:31.271Z,6268.00
2022-09-24T08:47:31.116Z,6540.00
2022-09-24T08:48:31.042Z,6644.00
2022-09-24T08:49:30.970Z,6576.00
2022-09-24T08:50:30.897Z,6580.00
2022-09-24T08:51:33.429Z,6496.00
2022-09-24T08:52:30.742Z,6436.00
2022-09-24T08:53:30.666Z,6368.00
2022-09-24T08:54:30.598Z,6360.00
2022-09-24T08:55:30.516Z,6316.00
2022-09-24T08:56:30.441Z,6240.00
2022-09-24T08:57:30.365Z,6160.00
2022-09-24T08:58:30.329Z,6176.00
2022-09-24T08:59:30.216Z,6232.00
2022-09-24T09:00:30.162Z,6320.00
2022-09-24T09:01:30.263Z,6496.00
2022-09-24T09:02:30.112Z,6624.00
2022-09-24T09:03:29.917Z,6592.00
2022-09-24T09:04:29.842Z,6672.00
2022-09-24T09:05:29.766Z,6640.00
2022-09-24T09:06:29.692Z,6524.00
2022-09-24T09:07:29.617Z,6444.00
2022-09-24T09:08:50.511Z,6408.00
2022-09-24T09:09:29.465Z,6248.00
2022-09-24T09:10:29.393Z,6228.00
2022-09-24T09:11:29.319Z,6332.00
2022-09-24T09:12:29.245Z,6492.00
2022-09-24T09:13:29.170Z,6700.00
2022-09-24T09:14:31.456Z,6944.00
2022-09-24T09:15:29.020Z,7064.00
2022-09-24T09:16:29.034Z,7072.00
2022-09-24T09:17:28.873Z,7136.00
2022-09-24T09:18:28.796Z,7280.00
2022-09-24T09:19:28.719Z,7548.00
2022-09-24T09:20:28.645Z,7760.00
2022-09-24T09:21:28.571Z,7828.00
2022-09-24T09:22:28.495Z,7864.00
2022-09-24T09:23:28.419Z,7900.00
2022-09-24T09:24:28.347Z,7972.00
2022-09-24T09:25:28.270Z,8064.00
2022-09-24T09:26:28.199Z,8164.00
2022-09-24T09:27:28.124Z,8372.00
2022-09-24T09:28:28.048Z,8644.00
2022-09-24T09:29:27.996Z,8932.00
2022-09-24T09:30:27.900Z,9052.00
2022-09-24T09:31:27.877Z,9020.00
2022-09-24T09:32:27.866Z,8900.00
2022-09-24T09:33:27.678Z,8824.00
2022-09-24T09:34:27.602Z,8744.00
2022-09-24T09:35:27.628Z,8336.00
2022-09-24T09:36:27.454Z,7808.00
2022-09-24T09:37:27.382Z,7512.00
2022-09-24T09:38:27.308Z,7340.00
2022-09-24T09:39:27.229Z,7032.00
2022-09-24T11:15:53.811Z,8820.00
2022-09-24T11:16:53.510Z,10280.00
2022-09-24T11:17:53.439Z,9876.00
2022-09-24T11:18:53.366Z,9952.00
2022-09-24T11:19:53.291Z,10748.00
2022-09-24T11:20:53.220Z,11720.00
2022-09-24T11:21:53.144Z,9596.00
2022-09-24T11:22:53.072Z,10928.00
2022-09-24T11:23:53.001Z,10528.00
2022-09-24T11:24:52.922Z,11248.00
2022-09-24T11:25:52.852Z,12656.00
2022-09-24T11:27:47.609Z,14680.00
2022-09-24T11:28:46.318Z,27104.00
2022-09-24T11:29:46.246Z,12868.00
2022-09-24T11:30:46.172Z,12660.00
2022-09-24T11:31:46.164Z,13516.00
2022-09-24T11:32:46.027Z,19616.00
2022-09-24T11:33:45.955Z,16352.00
2022-09-24T11:34:45.879Z,36544.00
2022-09-24T11:35:45.811Z,17472.00
2022-09-24T11:36:45.936Z,17344.00
2022-09-24T11:37:45.665Z,18848.00
2022-09-24T11:38:45.592Z,26528.00
2022-09-24T11:39:45.520Z,15484.00
2022-09-24T11:40:45.549Z,25728.00
2022-09-24T11:41:45.426Z,28736.00
2022-09-24T11:42:45.304Z,21280.00
2022-09-24T11:43:45.232Z,27520.00
2022-09-24T11:44:45.158Z,13664.00
2022-09-24T11:45:45.086Z,17696.00
2022-09-24T11:46:45.097Z,20032.00
2022-09-24T11:47:45.346Z,23712.00
2022-09-24T11:48:44.871Z,22304.00
2022-09-24T11:49:48.432Z,20608.00
2022-09-24T11:50:47.749Z,19392.00
2022-09-24T11:51:44.660Z,18080.00
2022-09-24T11:52:44.584Z,24448.00
2022-09-24T11:53:44.521Z,23104.00
2022-09-24T11:54:44.443Z,21664.00
2022-09-24T11:55:44.381Z,24032.00
2022-09-24T11:56:44.300Z,24992.00
2022-09-24T11:57:44.229Z,19168.00
2022-09-24T11:58:44.158Z,27712.00
2022-09-24T11:59:44.089Z,33984.00
2022-09-24T12:00:44.015Z,18848.00
2022-09-24T12:01:43.996Z,17920.00
2022-09-24T12:02:43.951Z,18304.00
2022-09-24T12:03:43.820Z,19680.00
2022-09-24T12:04:43.729Z,19648.00
2022-09-24T12:05:43.658Z,18848.00
2022-09-24T12:06:43.613Z,17216.00
2022-09-24T12:07:43.515Z,15476.00
2022-09-24T12:08:43.444Z,14020.00
2022-09-24T12:09:43.374Z,13956.00
2022-09-24T12:10:43.302Z,13756.00
2022-09-24T12:11:43.234Z,13400.00
2022-09-24T12:12:43.159Z,12412.00
2022-09-24T12:13:43.089Z,11416.00
2022-09-24T12:14:43.065Z,11092.00
2022-09-24T12:15:42.995Z,10268.00
2022-09-24T12:16:42.875Z,9580.00
2022-09-24T12:17:42.801Z,9404.00
2022-09-24T12:18:42.730Z,9796.00
2022-09-24T12:19:42.682Z,10512.00
2022-09-24T12:20:42.586Z,11356.00
2022-09-24T12:21:42.514Z,12400.00
2022-09-24T12:22:42.444Z,13804.00
2022-09-24T12:23:43.789Z,12744.00
2022-09-24T12:24:42.398Z,12844.00
2022-09-24T12:25:42.429Z,13004.00
2022-09-24T12:26:42.155Z,12808.00
2022-09-24T12:27:42.084Z,12832.00
2022-09-24T12:28:42.010Z,12376.00
2022-09-24T12:29:41.939Z,14764.00
2022-09-24T12:30:41.867Z,16448.00
2022-09-24T12:31:41.873Z,21504.00
2022-09-24T12:32:41.721Z,13292.00
2022-09-24T12:33:41.648Z,8972.00
2022-09-24T12:34:41.577Z,7208.00
2022-09-24T12:35:41.527Z,6224.00
2022-09-24T12:36:41.432Z,6228.00
2022-09-24T12:37:41.363Z,7048.00
2022-09-24T12:38:41.288Z,9448.00
2022-09-24T12:39:41.226Z,12636.00
2022-09-24T12:40:41.242Z,14824.00
2022-09-24T12:41:41.075Z,15552.00
2022-09-24T12:42:41.000Z,16544.00
2022-09-24T12:43:40.930Z,14956.00
2022-09-24T12:44:40.856Z,15144.00
2022-09-24T12:45:40.786Z,18048.00
2022-09-24T12:46:40.757Z,24288.00
2022-09-24T12:47:40.640Z,26976.00
2022-09-24T12:48:40.567Z,27200.00
2022-09-24T12:49:40.496Z,19552.00
2022-09-24T12:50:40.424Z,13148.00
2022-09-24T12:51:40.374Z,11412.00
2022-09-24T12:52:40.289Z,11072.00
2022-09-24T12:53:40.255Z,11144.00
2022-09-24T12:54:40.137Z,10840.00
2022-09-24T12:55:40.073Z,10480.00
2022-09-24T12:56:39.994Z,10112.00
2022-09-24T12:57:39.964Z,9416.00
2022-09-24T12:58:39.857Z,8668.00
2022-09-24T12:59:39.783Z,8136.00
2022-09-24T13:00:39.715Z,8184.00
2022-09-24T13:01:39.770Z,8376.00
2022-09-24T13:02:39.726Z,8916.00
2022-09-24T13:03:43.351Z,9900.00
2022-09-24T13:04:39.420Z,11396.00
2022-09-24T13:05:39.352Z,12724.00
2022-09-24T13:06:39.275Z,13740.00
2022-09-24T13:07:39.226Z,14860.00
2022-09-24T13:08:39.280Z,16288.00
2022-09-24T13:09:39.058Z,20032.00
2022-09-24T13:10:39.167Z,18496.00
2022-09-24T13:11:38.914Z,19136.00
2022-09-24T13:12:38.842Z,24480.00
2022-09-24T13:13:38.772Z,32640.00
2022-09-24T13:14:38.703Z,20352.00
2022-09-24T13:15:38.860Z,20480.00
2022-09-24T13:16:38.552Z,14876.00
2022-09-24T13:17:38.479Z,15584.00
2022-09-24T13:18:38.411Z,12724.00
2022-09-24T13:22:14.000Z,9128.00
2022-09-24T13:23:13.953Z,8928.00
2022-09-24T13:24:13.857Z,9320.00
2022-09-24T13:25:13.788Z,10452.00
2022-09-24T13:26:13.716Z,10344.00
2022-09-24T13:27:13.642Z,11244.00
2022-09-24T13:28:13.571Z,10728.00
2022-09-24T13:29:13.499Z,11136.00
2022-09-24T13:30:13.428Z,10644.00
2022-09-24T13:31:13.464Z,10612.00
2022-09-24T13:32:13.284Z,10420.00
2022-09-24T13:33:13.211Z,10236.00
2022-09-24T13:34:13.141Z,9460.00
2022-09-24T13:35:15.885Z,9272.00
2022-09-24T13:36:12.999Z,9628.00
2022-09-24T13:37:12.925Z,9876.00
2022-09-24T13:38:12.851Z,10700.00
2022-09-24T13:39:12.859Z,11548.00
2022-09-24T13:40:12.755Z,12132.00
2022-09-24T13:41:12.639Z,13304.00
2022-09-24T13:42:12.565Z,18336.00
2022-09-24T13:43:12.491Z,15872.00
2022-09-24T13:44:12.417Z,14868.00
2022-09-24T13:45:12.347Z,15872.00
2022-09-24T13:46:12.348Z,15680.00
2022-09-24T13:47:12.201Z,13012.00
2022-09-24T13:48:12.134Z,12884.00
2022-09-24T13:49:12.114Z,10680.00
2022-09-24T13:50:11.985Z,10304.00
2022-09-24T13:51:11.917Z,10312.00
2022-09-24T13:52:11.842Z,10792.00
2022-09-24T13:53:11.769Z,13392.00
2022-09-24T13:54:11.698Z,11608.00
2022-09-24T13:55:11.645Z,10100.00
2022-09-24T13:56:11.553Z,7056.00
2022-09-24T13:57:11.480Z,6216.00
2022-09-24T13:58:11.409Z,5888.00
2022-09-24T13:59:11.472Z,5952.00
2022-09-24T14:00:11.281Z,6336.00
2022-09-24T14:01:13.166Z,7384.00
2022-09-24T14:02:11.183Z,8284.00
2022-09-24T14:03:11.134Z,8932.00
2022-09-24T14:04:10.977Z,9256.00
2022-09-24T14:05:10.904Z,9252.00
2022-09-24T14:06:10.851Z,8884.00
2022-09-24T14:07:10.761Z,8760.00
2022-09-24T14:08:10.690Z,8116.00
2022-09-24T14:09:10.652Z,7540.00
2022-09-24T14:10:10.544Z,7236.00
2022-09-24T14:11:10.488Z,7212.00
2022-09-24T14:12:10.398Z,7440.00
2022-09-24T14:13:10.328Z,7848.00
2022-09-24T14:14:10.254Z,8068.00
2022-09-24T14:15:10.181Z,8076.00
2022-09-24T14:16:10.253Z,7992.00
2022-09-24T14:17:10.035Z,7896.00
2022-09-24T14:18:12.917Z,7276.00
2022-09-24T14:19:09.996Z,6572.00
2022-09-24T14:20:10.021Z,6244.00
2022-09-24T14:21:09.744Z,6124.00
2022-09-24T14:22:09.672Z,6252.00
2022-09-24T14:23:09.600Z,6608.00
2022-09-24T14:24:09.529Z,6664.00
2022-09-24T14:25:09.464Z,6864.00
2022-09-24T14:26:09.383Z,7096.00
2022-09-24T14:27:09.415Z,7324.00
2022-09-24T14:28:09.388Z,8504.00
2022-09-24T14:41:53.806Z,9016.00
2022-09-24T14:42:53.756Z,9604.00
2022-09-24T14:43:53.664Z,10168.00
2022-09-24T14:44:53.586Z,10884.00
2022-09-24T14:45:53.515Z,11624.00
2022-09-24T14:46:53.681Z,12324.00
2022-09-24T14:47:53.369Z,12424.00
2022-09-24T14:48:53.296Z,12604.00
2022-09-24T14:49:53.222Z,12664.00
2022-09-24T14:50:53.152Z,12592.00
2022-09-24T14:51:53.081Z,11968.00
2022-09-24T14:52:53.010Z,12272.00
2022-09-24T14:53:52.935Z,13624.00
2022-09-24T14:54:52.867Z,10180.00
2022-09-24T14:55:52.795Z,9268.00
2022-09-24T14:56:52.783Z,8296.00
2022-09-24T14:57:57.489Z,7148.00
2022-09-24T14:58:52.594Z,5928.00
2022-09-24T14:59:52.509Z,4900.00
2022-09-24T15:00:52.429Z,3956.00
2022-09-24T15:01:52.464Z,3228.00
2022-09-24T15:02:52.284Z,2728.00
2022-09-24T15:03:52.214Z,2496.00
2022-09-24T15:04:52.237Z,2404.00
2022-09-24T15:05:52.084Z,2392.00
2022-09-24T15:06:51.993Z,2480.00
2022-09-24T15:07:51.922Z,2836.00
2022-09-24T15:08:51.849Z,3388.00